
<gpx xmlns="http://www.topografix.com/GPX/1/1" xmlns:gpxx="http://www.garmin.com/xmlschemas/GpxExtensions/v3" xmlns:xsi="http://www.w3.org/2001/XMLSchema-instance" version="1.1" creator="Adze - https://getadze.com/" xsi:schemaLocation="http://www.topografix.com/GPX/1/1 http://www.topografix.com/GPX/1/1/gpx.xsd http://www.garmin.com/xmlschemas/GpxExtensions/v3 http://www.garmin.com/xmlschemas/GpxExtensionsv3.xsd">
    <metadata>
        <name>Untitled Document</name>
        <link href="http://www.garmin.com"></link>
        <time>2018-03-08T04:25:48.055Z</time>
    </metadata>
    <wpt lon="100.975072" lat="12.905608">
        <ele>72.000000</ele>
        <name>Horseshoe Point</name>
        <cmt>25-SEP-09 16:05:18</cmt>
        <desc>25-SEP-09 16:05:18</desc>
        <sym>Lodging</sym>
        <extensions>
            <gpxx:WaypointExtension xmlns:gpxx="http://www.garmin.com/xmlschemas/GpxExtensions/v3">
                <gpxx:DisplayMode>SymbolOnly</gpxx:DisplayMode>
            </gpxx:WaypointExtension>
        </extensions>
    </wpt>
    <wpt lon="100.982022" lat="12.951816">
        <ele>59.000000</ele>
        <name>September 2009 - Sunday water</name>
        <cmt>27-SEP-09 10:52:19</cmt>
        <desc>27-SEP-09 10:52:19</desc>
        <sym>Drinking Water</sym>
        <extensions>
            <gpxx:WaypointExtension xmlns:gpxx="http://www.garmin.com/xmlschemas/GpxExtensions/v3">
                <gpxx:DisplayMode>SymbolOnly</gpxx:DisplayMode>
            </gpxx:WaypointExtension>
        </extensions>
    </wpt>
    <trk>
        <name>September 2009 - Sunday</name>
        <extensions>
            <gpxx:TrackExtension xmlns:gpxx="http://www.garmin.com/xmlschemas/GpxExtensions/v3">
                <gpxx:DisplayColor>Green</gpxx:DisplayColor>
            </gpxx:TrackExtension>
        </extensions>
        <trkseg>
            <trkpt lon="100.974465" lat="12.906202">
                <ele>74.639526</ele>
                <time>2009-09-27T02:56:46Z</time>
            </trkpt>
            <trkpt lon="100.974327" lat="12.906166">
                <ele>73.197632</ele>
                <time>2009-09-27T02:56:56Z</time>
            </trkpt>
            <trkpt lon="100.974008" lat="12.904780">
                <ele>66.948975</ele>
                <time>2009-09-27T02:57:30Z</time>
            </trkpt>
            <trkpt lon="100.973515" lat="12.904621">
                <ele>71.274902</ele>
                <time>2009-09-27T02:58:59Z</time>
            </trkpt>
            <trkpt lon="100.973453" lat="12.904562">
                <ele>69.832886</ele>
                <time>2009-09-27T03:00:05Z</time>
            </trkpt>
            <trkpt lon="100.973608" lat="12.904483">
                <ele>68.871582</ele>
                <time>2009-09-27T03:00:43Z</time>
            </trkpt>
            <trkpt lon="100.973788" lat="12.903781">
                <ele>64.065063</ele>
                <time>2009-09-27T03:02:03Z</time>
            </trkpt>
            <trkpt lon="100.976688" lat="12.904023">
                <ele>65.987671</ele>
                <time>2009-09-27T03:04:10Z</time>
            </trkpt>
            <trkpt lon="100.977947" lat="12.904438">
                <ele>67.429688</ele>
                <time>2009-09-27T03:04:41Z</time>
            </trkpt>
            <trkpt lon="100.978719" lat="12.905515">
                <ele>67.910278</ele>
                <time>2009-09-27T03:05:08Z</time>
            </trkpt>
            <trkpt lon="100.979057" lat="12.906145">
                <ele>66.468262</ele>
                <time>2009-09-27T03:05:23Z</time>
            </trkpt>
            <trkpt lon="100.979283" lat="12.906191">
                <ele>65.987671</ele>
                <time>2009-09-27T03:05:31Z</time>
            </trkpt>
            <trkpt lon="100.980055" lat="12.903556">
                <ele>72.236206</ele>
                <time>2009-09-27T03:06:39Z</time>
            </trkpt>
            <trkpt lon="100.982062" lat="12.903690">
                <ele>77.523438</ele>
                <time>2009-09-27T03:07:39Z</time>
            </trkpt>
            <trkpt lon="100.982576" lat="12.903558">
                <ele>78.484741</ele>
                <time>2009-09-27T03:07:52Z</time>
            </trkpt>
            <trkpt lon="100.982958" lat="12.902816">
                <ele>80.407471</ele>
                <time>2009-09-27T03:08:13Z</time>
            </trkpt>
            <trkpt lon="100.983131" lat="12.902761">
                <ele>80.407471</ele>
                <time>2009-09-27T03:08:17Z</time>
            </trkpt>
            <trkpt lon="100.984289" lat="12.903341">
                <ele>78.004028</ele>
                <time>2009-09-27T03:08:40Z</time>
            </trkpt>
            <trkpt lon="100.984860" lat="12.905448">
                <ele>77.523438</ele>
                <time>2009-09-27T03:09:15Z</time>
            </trkpt>
            <trkpt lon="100.985487" lat="12.906732">
                <ele>72.236206</ele>
                <time>2009-09-27T03:09:38Z</time>
            </trkpt>
            <trkpt lon="100.985392" lat="12.907399">
                <ele>76.081421</ele>
                <time>2009-09-27T03:10:02Z</time>
            </trkpt>
            <trkpt lon="100.985473" lat="12.907498">
                <ele>74.639526</ele>
                <time>2009-09-27T03:10:08Z</time>
            </trkpt>
            <trkpt lon="100.985804" lat="12.907429">
                <ele>72.716919</ele>
                <time>2009-09-27T03:10:20Z</time>
            </trkpt>
            <trkpt lon="100.986440" lat="12.907127">
                <ele>72.236206</ele>
                <time>2009-09-27T03:10:42Z</time>
            </trkpt>
            <trkpt lon="100.987555" lat="12.908032">
                <ele>73.678223</ele>
                <time>2009-09-27T03:11:23Z</time>
            </trkpt>
            <trkpt lon="100.991382" lat="12.913872">
                <ele>75.120239</ele>
                <time>2009-09-27T03:14:05Z</time>
            </trkpt>
            <trkpt lon="100.990974" lat="12.914542">
                <ele>72.236206</ele>
                <time>2009-09-27T03:14:24Z</time>
            </trkpt>
            <trkpt lon="100.989229" lat="12.916561">
                <ele>79.926636</ele>
                <time>2009-09-27T03:15:54Z</time>
            </trkpt>
            <trkpt lon="100.989262" lat="12.916646">
                <ele>79.926636</ele>
                <time>2009-09-27T03:15:59Z</time>
            </trkpt>
            <trkpt lon="100.990161" lat="12.917079">
                <ele>85.694580</ele>
                <time>2009-09-27T03:16:31Z</time>
            </trkpt>
            <trkpt lon="100.990741" lat="12.917334">
                <ele>86.656006</ele>
                <time>2009-09-27T03:16:47Z</time>
            </trkpt>
            <trkpt lon="100.992541" lat="12.918249">
                <ele>86.656006</ele>
                <time>2009-09-27T03:17:29Z</time>
            </trkpt>
            <trkpt lon="100.993563" lat="12.918663">
                <ele>86.656006</ele>
                <time>2009-09-27T03:17:50Z</time>
            </trkpt>
            <trkpt lon="100.996069" lat="12.918221">
                <ele>81.368774</ele>
                <time>2009-09-27T03:18:29Z</time>
            </trkpt>
            <trkpt lon="100.997270" lat="12.918161">
                <ele>81.849365</ele>
                <time>2009-09-27T03:18:48Z</time>
            </trkpt>
            <trkpt lon="100.998676" lat="12.918314">
                <ele>83.771973</ele>
                <time>2009-09-27T03:19:20Z</time>
            </trkpt>
            <trkpt lon="100.999299" lat="12.918645">
                <ele>85.213989</ele>
                <time>2009-09-27T03:19:38Z</time>
            </trkpt>
            <trkpt lon="100.999798" lat="12.919226">
                <ele>87.136597</ele>
                <time>2009-09-27T03:19:57Z</time>
            </trkpt>
            <trkpt lon="101.000357" lat="12.919970">
                <ele>88.578735</ele>
                <time>2009-09-27T03:20:20Z</time>
            </trkpt>
            <trkpt lon="101.000604" lat="12.920633">
                <ele>90.020630</ele>
                <time>2009-09-27T03:20:38Z</time>
            </trkpt>
            <trkpt lon="101.000508" lat="12.921180">
                <ele>91.462524</ele>
                <time>2009-09-27T03:20:55Z</time>
            </trkpt>
            <trkpt lon="101.000195" lat="12.921649">
                <ele>92.904541</ele>
                <time>2009-09-27T03:21:15Z</time>
            </trkpt>
            <trkpt lon="100.999869" lat="12.921756">
                <ele>93.865845</ele>
                <time>2009-09-27T03:21:28Z</time>
            </trkpt>
            <trkpt lon="100.999560" lat="12.921553">
                <ele>94.827148</ele>
                <time>2009-09-27T03:21:43Z</time>
            </trkpt>
            <trkpt lon="100.999077" lat="12.921192">
                <ele>95.788452</ele>
                <time>2009-09-27T03:22:05Z</time>
            </trkpt>
            <trkpt lon="100.998597" lat="12.920800">
                <ele>96.269287</ele>
                <time>2009-09-27T03:22:26Z</time>
            </trkpt>
            <trkpt lon="100.997860" lat="12.920557">
                <ele>96.269287</ele>
                <time>2009-09-27T03:22:49Z</time>
            </trkpt>
            <trkpt lon="100.996916" lat="12.920529">
                <ele>94.346558</ele>
                <time>2009-09-27T03:23:11Z</time>
            </trkpt>
            <trkpt lon="100.995352" lat="12.921860">
                <ele>87.617188</ele>
                <time>2009-09-27T03:23:47Z</time>
            </trkpt>
            <trkpt lon="100.994984" lat="12.921873">
                <ele>87.136597</ele>
                <time>2009-09-27T03:23:55Z</time>
            </trkpt>
            <trkpt lon="100.994066" lat="12.921274">
                <ele>87.136597</ele>
                <time>2009-09-27T03:24:18Z</time>
            </trkpt>
            <trkpt lon="100.993190" lat="12.920173">
                <ele>89.539917</ele>
                <time>2009-09-27T03:24:58Z</time>
            </trkpt>
            <trkpt lon="100.991853" lat="12.919456">
                <ele>87.617188</ele>
                <time>2009-09-27T03:25:38Z</time>
            </trkpt>
            <trkpt lon="100.991716" lat="12.919070">
                <ele>87.617188</ele>
                <time>2009-09-27T03:25:50Z</time>
            </trkpt>
            <trkpt lon="100.990493" lat="12.919171">
                <ele>92.904541</ele>
                <time>2009-09-27T03:26:20Z</time>
            </trkpt>
            <trkpt lon="100.988505" lat="12.918860">
                <ele>91.943237</ele>
                <time>2009-09-27T03:27:05Z</time>
            </trkpt>
            <trkpt lon="100.988036" lat="12.919008">
                <ele>90.501343</ele>
                <time>2009-09-27T03:27:20Z</time>
            </trkpt>
            <trkpt lon="100.987878" lat="12.919897">
                <ele>85.694580</ele>
                <time>2009-09-27T03:27:50Z</time>
            </trkpt>
            <trkpt lon="100.987790" lat="12.919460">
                <ele>84.733398</ele>
                <time>2009-09-27T03:28:11Z</time>
            </trkpt>
            <trkpt lon="100.987408" lat="12.919419">
                <ele>82.330078</ele>
                <time>2009-09-27T03:28:23Z</time>
            </trkpt>
            <trkpt lon="100.986740" lat="12.919788">
                <ele>82.330078</ele>
                <time>2009-09-27T03:28:40Z</time>
            </trkpt>
            <trkpt lon="100.985750" lat="12.920304">
                <ele>78.004028</ele>
                <time>2009-09-27T03:29:02Z</time>
            </trkpt>
            <trkpt lon="100.984350" lat="12.920533">
                <ele>76.081421</ele>
                <time>2009-09-27T03:29:36Z</time>
            </trkpt>
            <trkpt lon="100.983994" lat="12.920688">
                <ele>77.523438</ele>
                <time>2009-09-27T03:29:51Z</time>
            </trkpt>
            <trkpt lon="100.983902" lat="12.921086">
                <ele>77.042847</ele>
                <time>2009-09-27T03:30:02Z</time>
            </trkpt>
            <trkpt lon="100.983362" lat="12.921838">
                <ele>74.639526</ele>
                <time>2009-09-27T03:30:19Z</time>
            </trkpt>
            <trkpt lon="100.982298" lat="12.922126">
                <ele>74.158813</ele>
                <time>2009-09-27T03:30:37Z</time>
            </trkpt>
            <trkpt lon="100.982142" lat="12.922295">
                <ele>70.313477</ele>
                <time>2009-09-27T03:30:46Z</time>
            </trkpt>
            <trkpt lon="100.982126" lat="12.922593">
                <ele>68.390869</ele>
                <time>2009-09-27T03:30:57Z</time>
            </trkpt>
            <trkpt lon="100.981881" lat="12.922837">
                <ele>65.507080</ele>
                <time>2009-09-27T03:31:07Z</time>
            </trkpt>
            <trkpt lon="100.981803" lat="12.923905">
                <ele>65.026367</ele>
                <time>2009-09-27T03:31:32Z</time>
            </trkpt>
            <trkpt lon="100.982161" lat="12.924689">
                <ele>61.661743</ele>
                <time>2009-09-27T03:31:56Z</time>
            </trkpt>
            <trkpt lon="100.982782" lat="12.925217">
                <ele>62.142334</ele>
                <time>2009-09-27T03:32:25Z</time>
            </trkpt>
            <trkpt lon="100.983217" lat="12.925341">
                <ele>62.622925</ele>
                <time>2009-09-27T03:32:38Z</time>
            </trkpt>
            <trkpt lon="100.984690" lat="12.925060">
                <ele>66.468262</ele>
                <time>2009-09-27T03:33:16Z</time>
            </trkpt>
            <trkpt lon="100.985284" lat="12.924907">
                <ele>66.948975</ele>
                <time>2009-09-27T03:33:32Z</time>
            </trkpt>
            <trkpt lon="100.986533" lat="12.925137">
                <ele>71.274902</ele>
                <time>2009-09-27T03:34:07Z</time>
            </trkpt>
            <trkpt lon="100.987662" lat="12.925636">
                <ele>71.274902</ele>
                <time>2009-09-27T03:34:42Z</time>
            </trkpt>
            <trkpt lon="100.987594" lat="12.926247">
                <ele>69.352295</ele>
                <time>2009-09-27T03:35:01Z</time>
            </trkpt>
            <trkpt lon="100.987034" lat="12.927485">
                <ele>66.948975</ele>
                <time>2009-09-27T03:35:37Z</time>
            </trkpt>
            <trkpt lon="100.986636" lat="12.928098">
                <ele>65.987671</ele>
                <time>2009-09-27T03:35:56Z</time>
            </trkpt>
            <trkpt lon="100.986251" lat="12.928401">
                <ele>65.507080</ele>
                <time>2009-09-27T03:36:09Z</time>
            </trkpt>
            <trkpt lon="100.986082" lat="12.928779">
                <ele>65.507080</ele>
                <time>2009-09-27T03:36:20Z</time>
            </trkpt>
            <trkpt lon="100.985950" lat="12.929456">
                <ele>65.987671</ele>
                <time>2009-09-27T03:36:37Z</time>
            </trkpt>
            <trkpt lon="100.986419" lat="12.931018">
                <ele>65.507080</ele>
                <time>2009-09-27T03:37:37Z</time>
            </trkpt>
            <trkpt lon="100.985043" lat="12.931690">
                <ele>62.622925</ele>
                <time>2009-09-27T03:38:11Z</time>
            </trkpt>
            <trkpt lon="100.984135" lat="12.932516">
                <ele>60.219727</ele>
                <time>2009-09-27T03:38:34Z</time>
            </trkpt>
            <trkpt lon="100.984071" lat="12.932668">
                <ele>59.258423</ele>
                <time>2009-09-27T03:38:38Z</time>
            </trkpt>
            <trkpt lon="100.984522" lat="12.933667">
                <ele>56.374512</ele>
                <time>2009-09-27T03:39:11Z</time>
            </trkpt>
            <trkpt lon="100.984876" lat="12.933813">
                <ele>56.855103</ele>
                <time>2009-09-27T03:39:58Z</time>
            </trkpt>
            <trkpt lon="100.984903" lat="12.934990">
                <ele>58.297119</ele>
                <time>2009-09-27T03:40:44Z</time>
            </trkpt>
            <trkpt lon="100.984431" lat="12.936271">
                <ele>56.374512</ele>
                <time>2009-09-27T03:41:26Z</time>
            </trkpt>
            <trkpt lon="100.984590" lat="12.936793">
                <ele>56.855103</ele>
                <time>2009-09-27T03:41:44Z</time>
            </trkpt>
            <trkpt lon="100.984534" lat="12.938070">
                <ele>57.816528</ele>
                <time>2009-09-27T03:42:11Z</time>
            </trkpt>
            <trkpt lon="100.987183" lat="12.939473">
                <ele>59.258423</ele>
                <time>2009-09-27T03:43:14Z</time>
            </trkpt>
            <trkpt lon="100.987471" lat="12.939353">
                <ele>58.777710</ele>
                <time>2009-09-27T03:43:22Z</time>
            </trkpt>
            <trkpt lon="100.988060" lat="12.938644">
                <ele>59.739136</ele>
                <time>2009-09-27T03:43:45Z</time>
            </trkpt>
            <trkpt lon="100.988457" lat="12.938487">
                <ele>60.219727</ele>
                <time>2009-09-27T03:43:58Z</time>
            </trkpt>
            <trkpt lon="100.989824" lat="12.939368">
                <ele>64.065063</ele>
                <time>2009-09-27T03:44:40Z</time>
            </trkpt>
            <trkpt lon="100.989789" lat="12.939528">
                <ele>64.545654</ele>
                <time>2009-09-27T03:44:45Z</time>
            </trkpt>
            <trkpt lon="100.989186" lat="12.941017">
                <ele>60.219727</ele>
                <time>2009-09-27T03:45:20Z</time>
            </trkpt>
            <trkpt lon="100.989277" lat="12.941498">
                <ele>58.777710</ele>
                <time>2009-09-27T03:45:30Z</time>
            </trkpt>
            <trkpt lon="100.989708" lat="12.942035">
                <ele>57.816528</ele>
                <time>2009-09-27T03:45:42Z</time>
            </trkpt>
            <trkpt lon="100.990074" lat="12.942979">
                <ele>57.335815</ele>
                <time>2009-09-27T03:46:00Z</time>
            </trkpt>
            <trkpt lon="100.990183" lat="12.943803">
                <ele>59.739136</ele>
                <time>2009-09-27T03:46:21Z</time>
            </trkpt>
            <trkpt lon="100.989889" lat="12.944381">
                <ele>59.258423</ele>
                <time>2009-09-27T03:46:39Z</time>
            </trkpt>
            <trkpt lon="100.988209" lat="12.944752">
                <ele>59.258423</ele>
                <time>2009-09-27T03:47:13Z</time>
            </trkpt>
            <trkpt lon="100.987772" lat="12.945136">
                <ele>58.297119</ele>
                <time>2009-09-27T03:47:28Z</time>
            </trkpt>
            <trkpt lon="100.987412" lat="12.945903">
                <ele>58.297119</ele>
                <time>2009-09-27T03:47:48Z</time>
            </trkpt>
            <trkpt lon="100.986322" lat="12.946592">
                <ele>61.661743</ele>
                <time>2009-09-27T03:48:24Z</time>
            </trkpt>
            <trkpt lon="100.985770" lat="12.947096">
                <ele>64.065063</ele>
                <time>2009-09-27T03:48:46Z</time>
            </trkpt>
            <trkpt lon="100.985273" lat="12.948214">
                <ele>65.987671</ele>
                <time>2009-09-27T03:49:20Z</time>
            </trkpt>
            <trkpt lon="100.984797" lat="12.949095">
                <ele>65.987671</ele>
                <time>2009-09-27T03:49:42Z</time>
            </trkpt>
            <trkpt lon="100.984380" lat="12.950259">
                <ele>63.584351</ele>
                <time>2009-09-27T03:50:05Z</time>
            </trkpt>
            <trkpt lon="100.982879" lat="12.951806">
                <ele>56.855103</ele>
                <time>2009-09-27T03:50:39Z</time>
            </trkpt>
            <trkpt lon="100.982324" lat="12.952240">
                <ele>55.413086</ele>
                <time>2009-09-27T03:50:53Z</time>
            </trkpt>
            <trkpt lon="100.981912" lat="12.951970">
                <ele>55.413086</ele>
                <time>2009-09-27T03:51:18Z</time>
            </trkpt>
            <trkpt lon="100.982017" lat="12.951818">
                <ele>59.739136</ele>
                <time>2009-09-27T03:52:27Z</time>
            </trkpt>
            <trkpt lon="100.981886" lat="12.951993">
                <ele>54.932373</ele>
                <time>2009-09-27T04:07:18Z</time>
            </trkpt>
            <trkpt lon="100.982270" lat="12.952311">
                <ele>56.855103</ele>
                <time>2009-09-27T04:07:39Z</time>
            </trkpt>
            <trkpt lon="100.981756" lat="12.953067">
                <ele>53.971191</ele>
                <time>2009-09-27T04:08:01Z</time>
            </trkpt>
            <trkpt lon="100.981343" lat="12.953310">
                <ele>54.932373</ele>
                <time>2009-09-27T04:08:10Z</time>
            </trkpt>
            <trkpt lon="100.981154" lat="12.953558">
                <ele>53.490479</ele>
                <time>2009-09-27T04:08:18Z</time>
            </trkpt>
            <trkpt lon="100.981387" lat="12.954542">
                <ele>50.125977</ele>
                <time>2009-09-27T04:08:38Z</time>
            </trkpt>
            <trkpt lon="100.981047" lat="12.954945">
                <ele>51.567871</ele>
                <time>2009-09-27T04:08:50Z</time>
            </trkpt>
            <trkpt lon="100.979900" lat="12.955049">
                <ele>52.529175</ele>
                <time>2009-09-27T04:09:14Z</time>
            </trkpt>
            <trkpt lon="100.979794" lat="12.955307">
                <ele>52.048584</ele>
                <time>2009-09-27T04:09:22Z</time>
            </trkpt>
            <trkpt lon="100.978652" lat="12.955831">
                <ele>53.009766</ele>
                <time>2009-09-27T04:10:07Z</time>
            </trkpt>
            <trkpt lon="100.977545" lat="12.956775">
                <ele>58.297119</ele>
                <time>2009-09-27T04:11:02Z</time>
            </trkpt>
            <trkpt lon="100.976252" lat="12.955297">
                <ele>54.932373</ele>
                <time>2009-09-27T04:11:43Z</time>
            </trkpt>
            <trkpt lon="100.975485" lat="12.954600">
                <ele>56.855103</ele>
                <time>2009-09-27T04:12:00Z</time>
            </trkpt>
            <trkpt lon="100.974951" lat="12.954508">
                <ele>59.258423</ele>
                <time>2009-09-27T04:12:14Z</time>
            </trkpt>
            <trkpt lon="100.974377" lat="12.954691">
                <ele>62.142334</ele>
                <time>2009-09-27T04:12:33Z</time>
            </trkpt>
            <trkpt lon="100.973741" lat="12.954909">
                <ele>64.065063</ele>
                <time>2009-09-27T04:12:56Z</time>
            </trkpt>
            <trkpt lon="100.972948" lat="12.955221">
                <ele>64.545654</ele>
                <time>2009-09-27T04:13:18Z</time>
            </trkpt>
            <trkpt lon="100.971001" lat="12.956176">
                <ele>54.932373</ele>
                <time>2009-09-27T04:13:53Z</time>
            </trkpt>
            <trkpt lon="100.967514" lat="12.958232">
                <ele>53.490479</ele>
                <time>2009-09-27T04:15:31Z</time>
            </trkpt>
            <trkpt lon="100.964257" lat="12.960352">
                <ele>52.048584</ele>
                <time>2009-09-27T04:17:22Z</time>
            </trkpt>
            <trkpt lon="100.963365" lat="12.961108">
                <ele>51.087158</ele>
                <time>2009-09-27T04:17:49Z</time>
            </trkpt>
            <trkpt lon="100.961953" lat="12.962214">
                <ele>46.280640</ele>
                <time>2009-09-27T04:18:30Z</time>
            </trkpt>
            <trkpt lon="100.959915" lat="12.963249">
                <ele>49.164551</ele>
                <time>2009-09-27T04:19:53Z</time>
            </trkpt>
            <trkpt lon="100.958549" lat="12.964355">
                <ele>38.590088</ele>
                <time>2009-09-27T04:20:55Z</time>
            </trkpt>
            <trkpt lon="100.957503" lat="12.964970">
                <ele>36.186768</ele>
                <time>2009-09-27T04:22:21Z</time>
            </trkpt>
            <trkpt lon="100.959065" lat="12.963954">
                <ele>40.512817</ele>
                <time>2009-09-27T04:23:18Z</time>
            </trkpt>
            <trkpt lon="100.959902" lat="12.963237">
                <ele>42.916016</ele>
                <time>2009-09-27T04:23:56Z</time>
            </trkpt>
            <trkpt lon="100.959700" lat="12.962999">
                <ele>45.799927</ele>
                <time>2009-09-27T04:24:27Z</time>
            </trkpt>
            <trkpt lon="100.959460" lat="12.962602">
                <ele>46.280640</ele>
                <time>2009-09-27T04:24:44Z</time>
            </trkpt>
            <trkpt lon="100.959104" lat="12.961673">
                <ele>48.683960</ele>
                <time>2009-09-27T04:25:44Z</time>
            </trkpt>
            <trkpt lon="100.959107" lat="12.961803">
                <ele>45.799927</ele>
                <time>2009-09-27T04:26:08Z</time>
            </trkpt>
            <trkpt lon="100.959092" lat="12.961799">
                <ele>48.203369</ele>
                <time>2009-09-27T04:27:00Z</time>
            </trkpt>
            <trkpt lon="100.959154" lat="12.961627">
                <ele>46.761231</ele>
                <time>2009-09-27T04:27:31Z</time>
            </trkpt>
            <trkpt lon="100.959717" lat="12.961242">
                <ele>50.125977</ele>
                <time>2009-09-27T04:28:06Z</time>
            </trkpt>
            <trkpt lon="100.959542" lat="12.960779">
                <ele>51.087158</ele>
                <time>2009-09-27T04:28:24Z</time>
            </trkpt>
            <trkpt lon="100.959477" lat="12.960487">
                <ele>51.087158</ele>
                <time>2009-09-27T04:28:36Z</time>
            </trkpt>
            <trkpt lon="100.960731" lat="12.960503">
                <ele>53.971191</ele>
                <time>2009-09-27T04:29:17Z</time>
            </trkpt>
            <trkpt lon="100.962820" lat="12.960269">
                <ele>56.855103</ele>
                <time>2009-09-27T04:30:18Z</time>
            </trkpt>
            <trkpt lon="100.964092" lat="12.960114">
                <ele>54.932373</ele>
                <time>2009-09-27T04:30:51Z</time>
            </trkpt>
            <trkpt lon="100.963146" lat="12.958906">
                <ele>62.622925</ele>
                <time>2009-09-27T04:32:04Z</time>
            </trkpt>
            <trkpt lon="100.962767" lat="12.957711">
                <ele>69.832886</ele>
                <time>2009-09-27T04:32:56Z</time>
            </trkpt>
            <trkpt lon="100.962680" lat="12.957432">
                <ele>69.352295</ele>
                <time>2009-09-27T04:33:11Z</time>
            </trkpt>
            <trkpt lon="100.964200" lat="12.956614">
                <ele>66.468262</ele>
                <time>2009-09-27T04:34:08Z</time>
            </trkpt>
            <trkpt lon="100.963640" lat="12.956109">
                <ele>65.987671</ele>
                <time>2009-09-27T04:34:35Z</time>
            </trkpt>
            <trkpt lon="100.963614" lat="12.955967">
                <ele>65.507080</ele>
                <time>2009-09-27T04:34:39Z</time>
            </trkpt>
            <trkpt lon="100.961100" lat="12.955612">
                <ele>57.816528</ele>
                <time>2009-09-27T04:36:23Z</time>
            </trkpt>
            <trkpt lon="100.960312" lat="12.955670">
                <ele>56.374512</ele>
                <time>2009-09-27T04:36:55Z</time>
            </trkpt>
            <trkpt lon="100.959996" lat="12.955531">
                <ele>57.335815</ele>
                <time>2009-09-27T04:37:08Z</time>
            </trkpt>
            <trkpt lon="100.958468" lat="12.955132">
                <ele>50.125977</ele>
                <time>2009-09-27T04:38:01Z</time>
            </trkpt>
            <trkpt lon="100.957404" lat="12.955049">
                <ele>44.358032</ele>
                <time>2009-09-27T04:39:16Z</time>
            </trkpt>
            <trkpt lon="100.957392" lat="12.954613">
                <ele>42.916016</ele>
                <time>2009-09-27T04:39:37Z</time>
            </trkpt>
            <trkpt lon="100.957613" lat="12.954031">
                <ele>42.435425</ele>
                <time>2009-09-27T04:39:55Z</time>
            </trkpt>
            <trkpt lon="100.958427" lat="12.952959">
                <ele>41.473999</ele>
                <time>2009-09-27T04:40:38Z</time>
            </trkpt>
            <trkpt lon="100.958695" lat="12.951688">
                <ele>42.435425</ele>
                <time>2009-09-27T04:41:38Z</time>
            </trkpt>
            <trkpt lon="100.963200" lat="12.952173">
                <ele>55.893799</ele>
                <time>2009-09-27T04:43:51Z</time>
            </trkpt>
            <trkpt lon="100.965727" lat="12.952492">
                <ele>58.297119</ele>
                <time>2009-09-27T04:44:51Z</time>
            </trkpt>
            <trkpt lon="100.965851" lat="12.952308">
                <ele>59.258423</ele>
                <time>2009-09-27T04:44:58Z</time>
            </trkpt>
            <trkpt lon="100.965468" lat="12.951106">
                <ele>62.142334</ele>
                <time>2009-09-27T04:45:26Z</time>
            </trkpt>
            <trkpt lon="100.965190" lat="12.950806">
                <ele>63.103638</ele>
                <time>2009-09-27T04:45:35Z</time>
            </trkpt>
            <trkpt lon="100.964021" lat="12.950438">
                <ele>62.142334</ele>
                <time>2009-09-27T04:46:03Z</time>
            </trkpt>
            <trkpt lon="100.963221" lat="12.950481">
                <ele>59.739136</ele>
                <time>2009-09-27T04:46:18Z</time>
            </trkpt>
            <trkpt lon="100.962742" lat="12.950231">
                <ele>59.258423</ele>
                <time>2009-09-27T04:46:28Z</time>
            </trkpt>
            <trkpt lon="100.962136" lat="12.949073">
                <ele>60.219727</ele>
                <time>2009-09-27T04:46:55Z</time>
            </trkpt>
            <trkpt lon="100.961981" lat="12.948249">
                <ele>60.219727</ele>
                <time>2009-09-27T04:47:12Z</time>
            </trkpt>
            <trkpt lon="100.961325" lat="12.947341">
                <ele>58.777710</ele>
                <time>2009-09-27T04:47:32Z</time>
            </trkpt>
            <trkpt lon="100.960121" lat="12.947005">
                <ele>54.932373</ele>
                <time>2009-09-27T04:47:53Z</time>
            </trkpt>
            <trkpt lon="100.959432" lat="12.947183">
                <ele>53.490479</ele>
                <time>2009-09-27T04:48:08Z</time>
            </trkpt>
            <trkpt lon="100.959075" lat="12.946613">
                <ele>55.413086</ele>
                <time>2009-09-27T04:48:23Z</time>
            </trkpt>
            <trkpt lon="100.958731" lat="12.946436">
                <ele>55.413086</ele>
                <time>2009-09-27T04:48:31Z</time>
            </trkpt>
            <trkpt lon="100.958330" lat="12.945905">
                <ele>54.451782</ele>
                <time>2009-09-27T04:48:43Z</time>
            </trkpt>
            <trkpt lon="100.958491" lat="12.944691">
                <ele>53.009766</ele>
                <time>2009-09-27T04:49:07Z</time>
            </trkpt>
            <trkpt lon="100.958846" lat="12.944413">
                <ele>55.893799</ele>
                <time>2009-09-27T04:49:34Z</time>
            </trkpt>
            <trkpt lon="100.958971" lat="12.942795">
                <ele>53.490479</ele>
                <time>2009-09-27T04:50:03Z</time>
            </trkpt>
            <trkpt lon="100.958585" lat="12.940533">
                <ele>46.280640</ele>
                <time>2009-09-27T04:50:36Z</time>
            </trkpt>
            <trkpt lon="100.956760" lat="12.923569">
                <ele>46.280640</ele>
                <time>2009-09-27T04:56:01Z</time>
            </trkpt>
            <trkpt lon="100.956624" lat="12.922362">
                <ele>45.799927</ele>
                <time>2009-09-27T04:56:23Z</time>
            </trkpt>
            <trkpt lon="100.956526" lat="12.921503">
                <ele>44.838623</ele>
                <time>2009-09-27T04:56:43Z</time>
            </trkpt>
            <trkpt lon="100.956068" lat="12.918600">
                <ele>56.374512</ele>
                <time>2009-09-27T04:58:18Z</time>
            </trkpt>
            <trkpt lon="100.955939" lat="12.918025">
                <ele>57.816528</ele>
                <time>2009-09-27T04:58:40Z</time>
            </trkpt>
            <trkpt lon="100.955922" lat="12.917954">
                <ele>57.816528</ele>
                <time>2009-09-27T04:58:45Z</time>
            </trkpt>
            <trkpt lon="100.956023" lat="12.918197">
                <ele>56.374512</ele>
                <time>2009-09-27T04:58:59Z</time>
            </trkpt>
            <trkpt lon="100.956726" lat="12.918172">
                <ele>55.893799</ele>
                <time>2009-09-27T04:59:19Z</time>
            </trkpt>
            <trkpt lon="100.957331" lat="12.917984">
                <ele>55.413086</ele>
                <time>2009-09-27T04:59:36Z</time>
            </trkpt>
            <trkpt lon="100.958224" lat="12.917391">
                <ele>54.451782</ele>
                <time>2009-09-27T05:00:10Z</time>
            </trkpt>
            <trkpt lon="100.959400" lat="12.917196">
                <ele>53.009766</ele>
                <time>2009-09-27T05:01:29Z</time>
            </trkpt>
            <trkpt lon="100.961046" lat="12.916587">
                <ele>51.087158</ele>
                <time>2009-09-27T05:02:06Z</time>
            </trkpt>
            <trkpt lon="100.962071" lat="12.916604">
                <ele>54.451782</ele>
                <time>2009-09-27T05:02:51Z</time>
            </trkpt>
            <trkpt lon="100.963281" lat="12.913593">
                <ele>53.490479</ele>
                <time>2009-09-27T05:03:57Z</time>
            </trkpt>
            <trkpt lon="100.963750" lat="12.913231">
                <ele>52.048584</ele>
                <time>2009-09-27T05:04:07Z</time>
            </trkpt>
            <trkpt lon="100.965999" lat="12.912659">
                <ele>50.606567</ele>
                <time>2009-09-27T05:04:44Z</time>
            </trkpt>
            <trkpt lon="100.968270" lat="12.912577">
                <ele>53.009766</ele>
                <time>2009-09-27T05:05:22Z</time>
            </trkpt>
            <trkpt lon="100.968323" lat="12.912552">
                <ele>53.009766</ele>
                <time>2009-09-27T05:05:23Z</time>
            </trkpt>
            <trkpt lon="100.968512" lat="12.912237">
                <ele>52.529175</ele>
                <time>2009-09-27T05:05:30Z</time>
            </trkpt>
            <trkpt lon="100.968550" lat="12.911365">
                <ele>53.009766</ele>
                <time>2009-09-27T05:05:47Z</time>
            </trkpt>
            <trkpt lon="100.968436" lat="12.909959">
                <ele>55.413086</ele>
                <time>2009-09-27T05:06:17Z</time>
            </trkpt>
            <trkpt lon="100.967961" lat="12.907969">
                <ele>62.142334</ele>
                <time>2009-09-27T05:07:00Z</time>
            </trkpt>
            <trkpt lon="100.967907" lat="12.907504">
                <ele>63.103638</ele>
                <time>2009-09-27T05:07:12Z</time>
            </trkpt>
            <trkpt lon="100.968072" lat="12.907258">
                <ele>63.584351</ele>
                <time>2009-09-27T05:07:19Z</time>
            </trkpt>
            <trkpt lon="100.968911" lat="12.906585">
                <ele>64.065063</ele>
                <time>2009-09-27T05:07:43Z</time>
            </trkpt>
            <trkpt lon="100.971297" lat="12.906405">
                <ele>68.390869</ele>
                <time>2009-09-27T05:08:36Z</time>
            </trkpt>
            <trkpt lon="100.972183" lat="12.906230">
                <ele>68.871582</ele>
                <time>2009-09-27T05:08:55Z</time>
            </trkpt>
            <trkpt lon="100.972408" lat="12.906068">
                <ele>68.390869</ele>
                <time>2009-09-27T05:09:01Z</time>
            </trkpt>
            <trkpt lon="100.972764" lat="12.906210">
                <ele>67.910278</ele>
                <time>2009-09-27T05:09:11Z</time>
            </trkpt>
            <trkpt lon="100.972686" lat="12.906755">
                <ele>68.390869</ele>
                <time>2009-09-27T05:09:30Z</time>
            </trkpt>
            <trkpt lon="100.972962" lat="12.907012">
                <ele>66.948975</ele>
                <time>2009-09-27T05:09:46Z</time>
            </trkpt>
            <trkpt lon="100.973508" lat="12.906958">
                <ele>68.390869</ele>
                <time>2009-09-27T05:10:03Z</time>
            </trkpt>
            <trkpt lon="100.973519" lat="12.906564">
                <ele>67.910278</ele>
                <time>2009-09-27T05:10:18Z</time>
            </trkpt>
            <trkpt lon="100.974230" lat="12.906360">
                <ele>71.274902</ele>
                <time>2009-09-27T05:10:41Z</time>
            </trkpt>
            <trkpt lon="100.974305" lat="12.906288">
                <ele>71.274902</ele>
                <time>2009-09-27T05:10:44Z</time>
            </trkpt>
        </trkseg>
    </trk>
</gpx>